Algoma, WV

9:29 AM EDT on July 24, 2014 (GMT -0400)
Parkview Heights (KVABLUEF4) Elev 2402 ft | 37.24 °N, 81.28 °W | Change Station

Current weather conditions updated 4 seconds ago

Overcast
Overcast
70.6 °F
Feels Like 70.6 °F
N
1.0
Wind Variable Wind from West
Gusts 4.0 mph

Today is forecast to be Cooler than yesterday. Showers and thunderstorms.

Today
High -- | Low -- °F
--% Chance of Precip.
Yesterday
High -- | Low -- °F
Precip. -- in
6:23 AM 8:40 PM
Waning Crescent, 5% visible
Pressure 30.05 in
Visibility 10.0 miles
Clouds Scattered Clouds 500 ft
Mostly Cloudy 1100 ft
Dew Point 67 °F
Humidity 88%
Rainfall 0.02 in
Snow Depth Not available.
UV 1.6 out of 12
Pollen .60 out of 12
Air Quality Not available.
Flu Activity Not available.
SPECI KBLF 241320Z AUTO 29005KT 10SM SCT005 BKN011 22/18 A3005 RMK AO2 T02170178

More Conditions Fewer Conditions

Pressure 30.05 in
Visibility 10.0 miles
Clouds Scattered Clouds 500 ft
Mostly Cloudy 1100 ft
Dew Point 67 °F
Humidity 88%
Rainfall 0.02 in
Snow Depth Not available.
UV 1.6 out of 12
Pollen .60 out of 12
Air Quality Not available.
Flu Activity Not available.
SPECI KBLF 241320Z AUTO 29005KT 10SM SCT005 BKN011 22/18 A3005 RMK AO2 T02170178

More Conditions Fewer Conditions

10-Day Weather Forecast

Almanac

Astronomy

Jul. 24, 2014 Rise Set
Actual Time 6:23 AM EDT 8:40 PM EDT
Civil Twilight 5:53 AM EDT 9:09 PM EDT
Nautical Twilight 5:17 AM EDT 9:46 PM EDT
Astronomical Twilight 4:37 AM EDT 10:25 PM EDT
Moon 4:29 AM EDT 6:55 PM EDT
Length of Visible Light 15h 15m
Length of Day
14h 16m
Tomorrow will be 1m 35s shorter.
Waning Crescent, 5% of the Moon is Illuminated
Today
Waning Crescent
Jul 26
New
Aug 3
First Quarter
Aug 10
Full
Aug 17
Last Quarter

Today's Extremes

State Highs State Lows

Community

WunderPhotos

Upload Photos

1,736,995 photos uploaded!

Nearby

Snow Depth

Station Depth Elevation
No new snow has been reported.

Earthquake Activity

City Distance Mag. Time & Date
No recent earthquake activity has been reported nearby.
Minimum magnitude displayed is 2.5.

Coastal Water Temperatures

Place Temperature
No Stations Reporting

Nearby Weather Stations

Station Location Temp. Heat Index Dew Point Humidity Wind Precip. Elev Updated Type
Parkview Heights, Bluefield, VA 70.6 °F - 67 °F 88% West  at  1.0 mph 0.00 in / hr 2402 ft 9:29 AM EDT Rapid Fire
Mullens, WV 71.2 °F - 71 °F 99% NE  at  1.6 mph 0.01 in / hr 1585 ft 9:20 AM EDT Normal
South Bluefield, Bluefield, WV 69.3 °F - 65 °F 86% WSW  at  1.0 mph 0.00 in / hr 2700 ft 9:29 AM EDT Rapid Fire
Oxley Hollow Road, Princeton, WV 72.2 °F 71 °F 67 °F 84% WNW  at  1.0 mph 0.00 in / hr 2411 ft 9:28 AM EDT Normal
Flat Top Lake, Ghent, WV 65.8 °F - 66 °F 99% NE  at  1.7 mph - / hr 2969 ft 9:19 AM EDT Normal
MesoWest T54A Tazewell , Burkes Garden, VA 67 °F - 63 °F 87% South  at  1 mph 0.00 in / hr 2794 ft 8:40 AM EDT MADIS

Show More Stations Show Fewer Stations